sensor_id;sensor_type;location;lat;lon;timestamp;P1;durP1;ratioP1;P2;durP2;ratioP2
53775;SDS011;44276;49.534;6.378;2024-03-08T00:00:33;49.17;;;20.50;;
53775;SDS011;44276;49.534;6.378;2024-03-08T00:03:01;44.13;;;20.13;;
53775;SDS011;44276;49.534;6.378;2024-03-08T00:05:30;49.60;;;21.45;;
53775;SDS011;44276;49.534;6.378;2024-03-08T00:07:59;46.50;;;20.38;;
53775;SDS011;44276;49.534;6.378;2024-03-08T00:10:27;50.15;;;20.52;;
53775;SDS011;44276;49.534;6.378;2024-03-08T00:12:56;49.88;;;20.05;;
53775;SDS011;44276;49.534;6.378;2024-03-08T00:15:25;47.80;;;19.13;;
53775;SDS011;44276;49.534;6.378;2024-03-08T00:17:57;49.25;;;19.35;;
53775;SDS011;44276;49.534;6.378;2024-03-08T00:20:25;52.35;;;22.20;;
53775;SDS011;44276;49.534;6.378;2024-03-08T00:22:54;43.08;;;19.35;;
53775;SDS011;44276;49.534;6.378;2024-03-08T00:25:24;48.10;;;20.20;;
53775;SDS011;44276;49.534;6.378;2024-03-08T00:27:52;41.53;;;17.52;;
53775;SDS011;44276;49.534;6.378;2024-03-08T00:30:22;48.22;;;20.88;;
53775;SDS011;44276;49.534;6.378;2024-03-08T00:32:51;48.10;;;19.92;;
53775;SDS011;44276;49.534;6.378;2024-03-08T00:35:21;53.80;;;20.58;;
53775;SDS011;44276;49.534;6.378;2024-03-08T00:37:50;45.35;;;18.65;;
53775;SDS011;44276;49.534;6.378;2024-03-08T00:40:18;52.40;;;20.13;;
53775;SDS011;44276;49.534;6.378;2024-03-08T00:42:46;41.38;;;17.25;;
53775;SDS011;44276;49.534;6.378;2024-03-08T00:45:15;55.22;;;19.60;;
53775;SDS011;44276;49.534;6.378;2024-03-08T00:47:43;58.15;;;20.58;;
53775;SDS011;44276;49.534;6.378;2024-03-08T00:50:12;55.03;;;23.63;;
53775;SDS011;44276;49.534;6.378;2024-03-08T00:52:41;58.65;;;20.67;;
53775;SDS011;44276;49.534;6.378;2024-03-08T00:55:09;42.00;;;17.60;;
53775;SDS011;44276;49.534;6.378;2024-03-08T00:57:38;49.83;;;20.63;;
53775;SDS011;44276;49.534;6.378;2024-03-08T01:00:07;50.03;;;19.13;;
53775;SDS011;44276;49.534;6.378;2024-03-08T01:02:39;48.53;;;21.10;;
53775;SDS011;44276;49.534;6.378;2024-03-08T01:05:07;53.25;;;20.75;;
53775;SDS011;44276;49.534;6.378;2024-03-08T01:07:36;55.40;;;20.63;;
53775;SDS011;44276;49.534;6.378;2024-03-08T01:10:06;48.10;;;19.48;;
53775;SDS011;44276;49.534;6.378;2024-03-08T01:12:37;48.63;;;19.17;;
53775;SDS011;44276;49.534;6.378;2024-03-08T01:15:06;58.28;;;18.48;;
53775;SDS011;44276;49.534;6.378;2024-03-08T01:17:34;53.03;;;21.27;;
53775;SDS011;44276;49.534;6.378;2024-03-08T01:20:03;54.28;;;23.27;;
53775;SDS011;44276;49.534;6.378;2024-03-08T01:22:33;45.78;;;18.63;;
53775;SDS011;44276;49.534;6.378;2024-03-08T01:25:02;52.00;;;23.08;;
53775;SDS011;44276;49.534;6.378;2024-03-08T01:27:32;49.28;;;21.33;;
53775;SDS011;44276;49.534;6.378;2024-03-08T01:30:01;53.92;;;23.60;;
53775;SDS011;44276;49.534;6.378;2024-03-08T01:32:31;50.90;;;22.35;;
53775;SDS011;44276;49.534;6.378;2024-03-08T01:35:00;52.08;;;20.83;;
53775;SDS011;44276;49.534;6.378;2024-03-08T01:37:29;56.50;;;22.38;;
53775;SDS011;44276;49.534;6.378;2024-03-08T01:39:57;49.10;;;20.10;;
53775;SDS011;44276;49.534;6.378;2024-03-08T01:42:26;47.33;;;20.85;;
53775;SDS011;44276;49.534;6.378;2024-03-08T01:44:55;42.20;;;18.48;;
53775;SDS011;44276;49.534;6.378;2024-03-08T01:47:24;42.70;;;18.17;;
53775;SDS011;44276;49.534;6.378;2024-03-08T01:49:53;42.75;;;18.85;;
53775;SDS011;44276;49.534;6.378;2024-03-08T01:52:21;38.88;;;15.88;;
53775;SDS011;44276;49.534;6.378;2024-03-08T01:54:51;36.22;;;16.65;;
53775;SDS011;44276;49.534;6.378;2024-03-08T01:57:20;34.85;;;16.10;;
53775;SDS011;44276;49.534;6.378;2024-03-08T01:59:49;33.60;;;15.80;;
53775;SDS011;44276;49.534;6.378;2024-03-08T02:02:22;41.28;;;18.20;;
53775;SDS011;44276;49.534;6.378;2024-03-08T02:04:50;33.25;;;14.50;;
53775;SDS011;44276;49.534;6.378;2024-03-08T02:07:19;36.00;;;16.88;;
53775;SDS011;44276;49.534;6.378;2024-03-08T02:09:48;35.08;;;17.75;;
53775;SDS011;44276;49.534;6.378;2024-03-08T02:12:17;44.40;;;18.25;;
53775;SDS011;44276;49.534;6.378;2024-03-08T02:14:47;38.45;;;17.48;;
53775;SDS011;44276;49.534;6.378;2024-03-08T02:17:15;38.65;;;17.98;;
53775;SDS011;44276;49.534;6.378;2024-03-08T02:19:45;32.70;;;16.02;;
53775;SDS011;44276;49.534;6.378;2024-03-08T02:22:15;45.50;;;17.02;;
53775;SDS011;44276;49.534;6.378;2024-03-08T02:24:44;40.65;;;17.60;;
53775;SDS011;44276;49.534;6.378;2024-03-08T02:27:12;36.03;;;19.13;;
53775;SDS011;44276;49.534;6.378;2024-03-08T02:29:40;32.00;;;15.25;;
53775;SDS011;44276;49.534;6.378;2024-03-08T02:32:11;35.60;;;15.32;;
53775;SDS011;44276;49.534;6.378;2024-03-08T02:34:39;36.28;;;17.85;;
53775;SDS011;44276;49.534;6.378;2024-03-08T02:37:08;36.35;;;16.60;;
53775;SDS011;44276;49.534;6.378;2024-03-08T02:39:37;37.90;;;14.52;;
53775;SDS011;44276;49.534;6.378;2024-03-08T02:42:06;40.33;;;17.88;;
53775;SDS011;44276;49.534;6.378;2024-03-08T02:44:34;37.28;;;16.30;;
53775;SDS011;44276;49.534;6.378;2024-03-08T02:47:06;31.95;;;16.90;;
53775;SDS011;44276;49.534;6.378;2024-03-08T02:49:34;41.53;;;19.42;;
53775;SDS011;44276;49.534;6.378;2024-03-08T02:52:04;45.47;;;19.15;;
53775;SDS011;44276;49.534;6.378;2024-03-08T02:54:33;43.20;;;18.80;;
53775;SDS011;44276;49.534;6.378;2024-03-08T02:57:04;37.88;;;16.95;;
53775;SDS011;44276;49.534;6.378;2024-03-08T02:59:33;36.38;;;16.13;;
53775;SDS011;44276;49.534;6.378;2024-03-08T03:02:02;41.95;;;18.63;;
53775;SDS011;44276;49.534;6.378;2024-03-08T03:04:30;37.15;;;14.65;;
53775;SDS011;44276;49.534;6.378;2024-03-08T03:06:59;37.08;;;17.42;;
53775;SDS011;44276;49.534;6.378;2024-03-08T03:09:28;37.03;;;15.95;;
53775;SDS011;44276;49.534;6.378;2024-03-08T03:11:56;36.40;;;17.38;;
53775;SDS011;44276;49.534;6.378;2024-03-08T03:14:26;37.95;;;18.85;;
53775;SDS011;44276;49.534;6.378;2024-03-08T03:16:54;43.47;;;19.88;;
53775;SDS011;44276;49.534;6.378;2024-03-08T03:19:22;36.95;;;16.45;;
53775;SDS011;44276;49.534;6.378;2024-03-08T03:21:50;35.78;;;17.42;;
53775;SDS011;44276;49.534;6.378;2024-03-08T03:24:19;32.95;;;14.98;;
53775;SDS011;44276;49.534;6.378;2024-03-08T03:26:47;34.30;;;16.83;;
53775;SDS011;44276;49.534;6.378;2024-03-08T03:29:16;33.40;;;16.05;;
53775;SDS011;44276;49.534;6.378;2024-03-08T03:31:46;32.38;;;14.88;;
53775;SDS011;44276;49.534;6.378;2024-03-08T03:34:14;34.88;;;16.10;;
53775;SDS011;44276;49.534;6.378;2024-03-08T03:36:42;32.58;;;15.35;;
53775;SDS011;44276;49.534;6.378;2024-03-08T03:39:13;35.60;;;16.50;;
53775;SDS011;44276;49.534;6.378;2024-03-08T03:41:46;33.65;;;15.98;;
53775;SDS011;44276;49.534;6.378;2024-03-08T03:44:18;33.55;;;16.90;;
53775;SDS011;44276;49.534;6.378;2024-03-08T03:46:47;37.35;;;16.50;;
53775;SDS011;44276;49.534;6.378;2024-03-08T03:49:16;43.38;;;17.15;;
53775;SDS011;44276;49.534;6.378;2024-03-08T03:51:45;34.33;;;15.85;;
53775;SDS011;44276;49.534;6.378;2024-03-08T03:54:13;39.95;;;16.67;;
53775;SDS011;44276;49.534;6.378;2024-03-08T03:56:41;30.45;;;14.27;;
53775;SDS011;44276;49.534;6.378;2024-03-08T03:59:11;34.42;;;16.00;;
53775;SDS011;44276;49.534;6.378;2024-03-08T04:01:41;39.42;;;17.83;;
53775;SDS011;44276;49.534;6.378;2024-03-08T04:04:11;36.10;;;16.17;;
53775;SDS011;44276;49.534;6.378;2024-03-08T04:06:39;32.65;;;15.48;;
53775;SDS011;44276;49.534;6.378;2024-03-08T04:09:08;26.50;;;13.93;;
53775;SDS011;44276;49.534;6.378;2024-03-08T04:11:39;35.75;;;16.92;;
53775;SDS011;44276;49.534;6.378;2024-03-08T04:14:07;43.70;;;19.33;;
53775;SDS011;44276;49.534;6.378;2024-03-08T04:16:35;42.92;;;17.30;;
53775;SDS011;44276;49.534;6.378;2024-03-08T04:19:04;34.05;;;17.27;;
53775;SDS011;44276;49.534;6.378;2024-03-08T04:21:34;33.67;;;15.88;;
53775;SDS011;44276;49.534;6.378;2024-03-08T04:24:03;32.28;;;15.55;;
53775;SDS011;44276;49.534;6.378;2024-03-08T04:26:32;28.27;;;16.05;;
53775;SDS011;44276;49.534;6.378;2024-03-08T04:29:00;38.95;;;14.48;;
53775;SDS011;44276;49.534;6.378;2024-03-08T04:31:29;29.90;;;14.30;;
53775;SDS011;44276;49.534;6.378;2024-03-08T04:33:57;32.10;;;15.35;;
53775;SDS011;44276;49.534;6.378;2024-03-08T04:36:26;35.25;;;14.85;;
53775;SDS011;44276;49.534;6.378;2024-03-08T04:38:56;38.30;;;17.70;;
53775;SDS011;44276;49.534;6.378;2024-03-08T04:41:24;32.05;;;15.85;;
53775;SDS011;44276;49.534;6.378;2024-03-08T04:43:52;36.33;;;16.02;;
53775;SDS011;44276;49.534;6.378;2024-03-08T04:46:23;39.00;;;16.50;;
53775;SDS011;44276;49.534;6.378;2024-03-08T04:48:52;38.50;;;16.75;;
53775;SDS011;44276;49.534;6.378;2024-03-08T04:51:20;37.60;;;17.35;;
53775;SDS011;44276;49.534;6.378;2024-03-08T04:53:48;36.83;;;17.33;;
53775;SDS011;44276;49.534;6.378;2024-03-08T04:56:18;41.60;;;16.40;;
53775;SDS011;44276;49.534;6.378;2024-03-08T04:58:46;42.42;;;18.13;;
53775;SDS011;44276;49.534;6.378;2024-03-08T05:01:14;39.25;;;17.10;;
53775;SDS011;44276;49.534;6.378;2024-03-08T05:03:44;38.78;;;18.55;;
53775;SDS011;44276;49.534;6.378;2024-03-08T05:06:14;34.08;;;18.17;;
53775;SDS011;44276;49.534;6.378;2024-03-08T05:08:43;42.92;;;19.35;;
53775;SDS011;44276;49.534;6.378;2024-03-08T05:11:12;40.65;;;17.88;;
53775;SDS011;44276;49.534;6.378;2024-03-08T05:13:43;35.03;;;15.02;;
53775;SDS011;44276;49.534;6.378;2024-03-08T05:16:11;37.65;;;16.55;;
53775;SDS011;44276;49.534;6.378;2024-03-08T05:18:41;38.25;;;16.40;;
53775;SDS011;44276;49.534;6.378;2024-03-08T05:21:10;34.08;;;16.40;;
53775;SDS011;44276;49.534;6.378;2024-03-08T05:23:38;42.17;;;16.80;;
53775;SDS011;44276;49.534;6.378;2024-03-08T05:26:06;37.85;;;16.02;;
53775;SDS011;44276;49.534;6.378;2024-03-08T05:28:35;34.08;;;16.30;;
53775;SDS011;44276;49.534;6.378;2024-03-08T05:31:05;37.30;;;16.52;;
53775;SDS011;44276;49.534;6.378;2024-03-08T05:33:33;42.70;;;16.90;;
53775;SDS011;44276;49.534;6.378;2024-03-08T05:36:01;34.53;;;14.93;;
53775;SDS011;44276;49.534;6.378;2024-03-08T05:38:30;33.47;;;15.13;;
53775;SDS011;44276;49.534;6.378;2024-03-08T05:40:58;35.65;;;16.40;;
53775;SDS011;44276;49.534;6.378;2024-03-08T05:43:26;30.35;;;14.73;;
53775;SDS011;44276;49.534;6.378;2024-03-08T05:45:54;37.60;;;15.30;;
53775;SDS011;44276;49.534;6.378;2024-03-08T05:48:24;39.45;;;14.30;;
53775;SDS011;44276;49.534;6.378;2024-03-08T05:50:52;37.20;;;16.10;;
53775;SDS011;44276;49.534;6.378;2024-03-08T05:53:20;34.42;;;14.85;;
53775;SDS011;44276;49.534;6.378;2024-03-08T05:55:48;36.70;;;17.88;;
53775;SDS011;44276;49.534;6.378;2024-03-08T05:58:17;34.10;;;15.02;;
53775;SDS011;44276;49.534;6.378;2024-03-08T06:00:45;34.67;;;15.02;;
53775;SDS011;44276;49.534;6.378;2024-03-08T06:03:17;29.48;;;15.13;;
53775;SDS011;44276;49.534;6.378;2024-03-08T06:05:49;37.25;;;16.13;;
53775;SDS011;44276;49.534;6.378;2024-03-08T06:08:17;33.63;;;14.52;;
53775;SDS011;44276;49.534;6.378;2024-03-08T06:10:46;30.40;;;13.02;;
53775;SDS011;44276;49.534;6.378;2024-03-08T06:13:19;34.80;;;14.27;;
53775;SDS011;44276;49.534;6.378;2024-03-08T06:15:47;28.67;;;14.13;;
53775;SDS011;44276;49.534;6.378;2024-03-08T06:18:16;28.63;;;13.18;;
53775;SDS011;44276;49.534;6.378;2024-03-08T06:20:44;37.75;;;16.25;;
53775;SDS011;44276;49.534;6.378;2024-03-08T06:23:14;36.03;;;15.50;;
53775;SDS011;44276;49.534;6.378;2024-03-08T06:25:44;30.35;;;15.30;;
53775;SDS011;44276;49.534;6.378;2024-03-08T06:28:12;28.90;;;14.88;;
53775;SDS011;44276;49.534;6.378;2024-03-08T06:30:41;33.50;;;15.50;;
53775;SDS011;44276;49.534;6.378;2024-03-08T06:33:09;31.45;;;14.35;;
53775;SDS011;44276;49.534;6.378;2024-03-08T06:35:38;31.15;;;13.65;;
53775;SDS011;44276;49.534;6.378;2024-03-08T06:38:06;30.35;;;14.75;;
53775;SDS011;44276;49.534;6.378;2024-03-08T06:40:36;29.20;;;14.52;;
53775;SDS011;44276;49.534;6.378;2024-03-08T06:43:04;23.30;;;13.02;;
53775;SDS011;44276;49.534;6.378;2024-03-08T06:45:33;29.45;;;14.35;;
53775;SDS011;44276;49.534;6.378;2024-03-08T06:48:03;32.60;;;14.38;;
53775;SDS011;44276;49.534;6.378;2024-03-08T06:50:36;27.88;;;13.05;;
53775;SDS011;44276;49.534;6.378;2024-03-08T06:53:04;26.55;;;13.50;;
53775;SDS011;44276;49.534;6.378;2024-03-08T06:55:32;26.58;;;13.73;;
53775;SDS011;44276;49.534;6.378;2024-03-08T06:58:03;32.17;;;13.80;;
53775;SDS011;44276;49.534;6.378;2024-03-08T07:00:33;28.60;;;13.15;;
53775;SDS011;44276;49.534;6.378;2024-03-08T07:03:02;25.77;;;13.55;;
53775;SDS011;44276;49.534;6.378;2024-03-08T07:05:38;23.25;;;11.45;;
53775;SDS011;44276;49.534;6.378;2024-03-08T07:08:07;22.40;;;11.52;;
53775;SDS011;44276;49.534;6.378;2024-03-08T07:10:35;24.38;;;12.38;;
53775;SDS011;44276;49.534;6.378;2024-03-08T07:13:05;30.65;;;13.52;;
53775;SDS011;44276;49.534;6.378;2024-03-08T07:15:33;25.17;;;13.23;;
53775;SDS011;44276;49.534;6.378;2024-03-08T07:18:02;26.73;;;11.85;;
53775;SDS011;44276;49.534;6.378;2024-03-08T07:20:31;23.63;;;11.60;;
53775;SDS011;44276;49.534;6.378;2024-03-08T07:22:59;21.85;;;11.55;;
53775;SDS011;44276;49.534;6.378;2024-03-08T07:25:27;29.88;;;11.35;;
53775;SDS011;44276;49.534;6.378;2024-03-08T07:27:56;24.05;;;11.13;;
53775;SDS011;44276;49.534;6.378;2024-03-08T07:30:25;30.92;;;12.60;;
53775;SDS011;44276;49.534;6.378;2024-03-08T07:33:09;24.55;;;12.18;;
53775;SDS011;44276;49.534;6.378;2024-03-08T07:35:39;22.25;;;11.27;;
53775;SDS011;44276;49.534;6.378;2024-03-08T07:38:10;25.30;;;11.65;;
53775;SDS011;44276;49.534;6.378;2024-03-08T07:40:39;25.30;;;11.15;;
53775;SDS011;44276;49.534;6.378;2024-03-08T07:43:11;21.95;;;11.52;;
53775;SDS011;44276;49.534;6.378;2024-03-08T07:45:41;24.33;;;11.52;;
53775;SDS011;44276;49.534;6.378;2024-03-08T07:48:09;19.73;;;10.20;;
53775;SDS011;44276;49.534;6.378;2024-03-08T07:50:40;20.05;;;10.65;;
53775;SDS011;44276;49.534;6.378;2024-03-08T07:53:08;22.10;;;11.65;;
53775;SDS011;44276;49.534;6.378;2024-03-08T07:55:36;21.13;;;12.02;;
53775;SDS011;44276;49.534;6.378;2024-03-08T07:58:06;19.98;;;11.50;;
53775;SDS011;44276;49.534;6.378;2024-03-08T08:00:37;16.75;;;10.10;;
53775;SDS011;44276;49.534;6.378;2024-03-08T08:03:06;20.20;;;11.82;;
53775;SDS011;44276;49.534;6.378;2024-03-08T08:05:35;21.02;;;11.15;;
53775;SDS011;44276;49.534;6.378;2024-03-08T08:08:05;20.13;;;12.02;;
53775;SDS011;44276;49.534;6.378;2024-03-08T08:10:37;18.77;;;10.45;;
53775;SDS011;44276;49.534;6.378;2024-03-08T08:13:05;21.38;;;11.63;;
53775;SDS011;44276;49.534;6.378;2024-03-08T08:15:34;19.30;;;12.07;;
53775;SDS011;44276;49.534;6.378;2024-03-08T08:18:02;18.83;;;11.52;;
53775;SDS011;44276;49.534;6.378;2024-03-08T08:20:34;20.63;;;11.70;;
53775;SDS011;44276;49.534;6.378;2024-03-08T08:23:03;20.73;;;11.38;;
53775;SDS011;44276;49.534;6.378;2024-03-08T08:25:32;19.30;;;11.40;;
53775;SDS011;44276;49.534;6.378;2024-03-08T08:28:01;20.20;;;10.60;;
53775;SDS011;44276;49.534;6.378;2024-03-08T08:30:31;16.42;;;10.68;;
53775;SDS011;44276;49.534;6.378;2024-03-08T08:33:00;18.35;;;11.13;;
53775;SDS011;44276;49.534;6.378;2024-03-08T08:35:28;17.80;;;10.43;;
53775;SDS011;44276;49.534;6.378;2024-03-08T08:37:58;19.98;;;11.70;;
53775;SDS011;44276;49.534;6.378;2024-03-08T08:40:27;17.92;;;10.60;;
53775;SDS011;44276;49.534;6.378;2024-03-08T08:42:57;16.63;;;10.15;;
53775;SDS011;44276;49.534;6.378;2024-03-08T08:45:25;14.15;;;10.43;;
53775;SDS011;44276;49.534;6.378;2024-03-08T08:47:54;16.42;;;11.05;;
53775;SDS011;44276;49.534;6.378;2024-03-08T08:50:22;16.48;;;10.48;;
53775;SDS011;44276;49.534;6.378;2024-03-08T08:52:52;17.33;;;10.80;;
53775;SDS011;44276;49.534;6.378;2024-03-08T08:55:22;17.50;;;11.68;;
53775;SDS011;44276;49.534;6.378;2024-03-08T08:57:52;14.85;;;9.75;;
53775;SDS011;44276;49.534;6.378;2024-03-08T09:00:22;15.45;;;10.48;;
53775;SDS011;44276;49.534;6.378;2024-03-08T09:02:54;14.65;;;10.07;;
53775;SDS011;44276;49.534;6.378;2024-03-08T09:05:24;15.18;;;10.63;;
53775;SDS011;44276;49.534;6.378;2024-03-08T09:07:53;18.85;;;10.95;;
53775;SDS011;44276;49.534;6.378;2024-03-08T09:10:23;14.70;;;9.38;;
53775;SDS011;44276;49.534;6.378;2024-03-08T09:12:54;15.63;;;10.27;;
53775;SDS011;44276;49.534;6.378;2024-03-08T09:15:22;14.68;;;10.90;;
53775;SDS011;44276;49.534;6.378;2024-03-08T09:17:55;15.63;;;11.43;;
53775;SDS011;44276;49.534;6.378;2024-03-08T09:20:25;16.55;;;10.25;;
53775;SDS011;44276;49.534;6.378;2024-03-08T09:22:54;16.45;;;10.57;;
53775;SDS011;44276;49.534;6.378;2024-03-08T09:25:24;17.90;;;11.40;;
53775;SDS011;44276;49.534;6.378;2024-03-08T09:27:52;16.65;;;10.27;;
53775;SDS011;44276;49.534;6.378;2024-03-08T09:30:21;17.42;;;11.68;;
53775;SDS011;44276;49.534;6.378;2024-03-08T09:32:50;19.30;;;10.40;;
53775;SDS011;44276;49.534;6.378;2024-03-08T09:35:19;13.98;;;9.93;;
53775;SDS011;44276;49.534;6.378;2024-03-08T09:37:48;17.50;;;11.55;;
53775;SDS011;44276;49.534;6.378;2024-03-08T09:40:18;15.68;;;10.27;;
53775;SDS011;44276;49.534;6.378;2024-03-08T09:42:49;14.55;;;10.02;;
53775;SDS011;44276;49.534;6.378;2024-03-08T09:45:19;15.82;;;10.52;;
53775;SDS011;44276;49.534;6.378;2024-03-08T09:47:50;14.32;;;9.40;;
53775;SDS011;44276;49.534;6.378;2024-03-08T09:50:19;18.67;;;10.82;;
53775;SDS011;44276;49.534;6.378;2024-03-08T09:52:48;15.70;;;9.75;;
53775;SDS011;44276;49.534;6.378;2024-03-08T09:55:17;16.52;;;11.60;;
53775;SDS011;44276;49.534;6.378;2024-03-08T09:57:50;13.15;;;9.02;;
53775;SDS011;44276;49.534;6.378;2024-03-08T10:00:35;20.10;;;10.93;;
53775;SDS011;44276;49.534;6.378;2024-03-08T10:03:04;15.23;;;10.60;;
53775;SDS011;44276;49.534;6.378;2024-03-08T10:05:32;14.07;;;9.75;;
53775;SDS011;44276;49.534;6.378;2024-03-08T10:08:00;16.73;;;10.20;;
53775;SDS011;44276;49.534;6.378;2024-03-08T10:10:28;15.85;;;10.95;;
53775;SDS011;44276;49.534;6.378;2024-03-08T10:12:58;17.27;;;11.02;;
53775;SDS011;44276;49.534;6.378;2024-03-08T10:15:26;16.70;;;10.77;;
53775;SDS011;44276;49.534;6.378;2024-03-08T10:17:56;15.13;;;9.27;;
53775;SDS011;44276;49.534;6.378;2024-03-08T10:20:24;16.42;;;10.48;;
53775;SDS011;44276;49.534;6.378;2024-03-08T10:22:53;16.08;;;9.55;;
53775;SDS011;44276;49.534;6.378;2024-03-08T10:25:35;15.30;;;9.43;;
53775;SDS011;44276;49.534;6.378;2024-03-08T10:28:05;17.17;;;10.70;;
53775;SDS011;44276;49.534;6.378;2024-03-08T10:30:34;15.80;;;9.27;;
53775;SDS011;44276;49.534;6.378;2024-03-08T10:33:02;16.80;;;10.15;;
53775;SDS011;44276;49.534;6.378;2024-03-08T10:35:32;17.08;;;9.48;;
53775;SDS011;44276;49.534;6.378;2024-03-08T10:38:00;15.68;;;10.50;;
53775;SDS011;44276;49.534;6.378;2024-03-08T10:40:34;18.30;;;11.38;;
53775;SDS011;44276;49.534;6.378;2024-03-08T10:43:10;16.10;;;10.25;;
53775;SDS011;44276;49.534;6.378;2024-03-08T10:45:55;17.20;;;9.48;;
53775;SDS011;44276;49.534;6.378;2024-03-08T10:48:39;15.13;;;9.63;;
53775;SDS011;44276;49.534;6.378;2024-03-08T10:51:12;14.27;;;9.52;;
53775;SDS011;44276;49.534;6.378;2024-03-08T10:53:43;17.92;;;9.35;;
53775;SDS011;44276;49.534;6.378;2024-03-08T10:56:15;15.15;;;10.00;;
53775;SDS011;44276;49.534;6.378;2024-03-08T10:58:44;14.82;;;10.70;;
53775;SDS011;44276;49.534;6.378;2024-03-08T11:01:15;17.35;;;10.50;;
53775;SDS011;44276;49.534;6.378;2024-03-08T11:03:44;15.85;;;10.68;;
53775;SDS011;44276;49.534;6.378;2024-03-08T11:06:16;15.15;;;10.65;;
53775;SDS011;44276;49.534;6.378;2024-03-08T11:08:49;12.43;;;9.02;;
53775;SDS011;44276;49.534;6.378;2024-03-08T11:11:23;15.85;;;9.57;;
53775;SDS011;44276;49.534;6.378;2024-03-08T11:14:02;17.00;;;11.02;;
53775;SDS011;44276;49.534;6.378;2024-03-08T11:16:39;16.92;;;10.07;;
53775;SDS011;44276;49.534;6.378;2024-03-08T11:21:59;18.10;;;9.98;;
53775;SDS011;44276;49.534;6.378;2024-03-08T11:24:38;14.73;;;10.13;;
53775;SDS011;44276;49.534;6.378;2024-03-08T11:27:08;14.85;;;10.10;;
53775;SDS011;44276;49.534;6.378;2024-03-08T11:29:39;16.58;;;10.38;;
53775;SDS011;44276;49.534;6.378;2024-03-08T11:32:08;16.48;;;9.85;;
53775;SDS011;44276;49.534;6.378;2024-03-08T11:34:39;15.07;;;9.93;;
53775;SDS011;44276;49.534;6.378;2024-03-08T11:37:11;15.18;;;10.35;;
53775;SDS011;44276;49.534;6.378;2024-03-08T11:39:46;16.48;;;11.60;;
53775;SDS011;44276;49.534;6.378;2024-03-08T11:42:16;14.35;;;9.68;;
53775;SDS011;44276;49.534;6.378;2024-03-08T11:44:47;14.75;;;9.25;;
53775;SDS011;44276;49.534;6.378;2024-03-08T11:47:19;16.33;;;9.93;;
53775;SDS011;44276;49.534;6.378;2024-03-08T11:49:48;15.48;;;10.50;;
53775;SDS011;44276;49.534;6.378;2024-03-08T11:52:17;15.60;;;10.38;;
53775;SDS011;44276;49.534;6.378;2024-03-08T11:54:48;18.73;;;11.85;;
53775;SDS011;44276;49.534;6.378;2024-03-08T11:57:24;13.57;;;10.23;;
53775;SDS011;44276;49.534;6.378;2024-03-08T11:59:56;15.88;;;10.35;;
53775;SDS011;44276;49.534;6.378;2024-03-08T12:02:32;15.57;;;10.40;;
53775;SDS011;44276;49.534;6.378;2024-03-08T12:05:04;14.60;;;9.32;;
53775;SDS011;44276;49.534;6.378;2024-03-08T12:07:36;17.35;;;10.02;;
53775;SDS011;44276;49.534;6.378;2024-03-08T12:10:17;17.08;;;10.18;;
53775;SDS011;44276;49.534;6.378;2024-03-08T12:12:48;20.27;;;10.20;;
53775;SDS011;44276;49.534;6.378;2024-03-08T12:15:20;16.90;;;11.05;;
53775;SDS011;44276;49.534;6.378;2024-03-08T12:17:51;16.52;;;9.57;;
53775;SDS011;44276;49.534;6.378;2024-03-08T12:20:22;21.50;;;10.60;;
53775;SDS011;44276;49.534;6.378;2024-03-08T12:22:53;17.17;;;10.65;;
53775;SDS011;44276;49.534;6.378;2024-03-08T12:25:26;16.90;;;10.10;;
53775;SDS011;44276;49.534;6.378;2024-03-08T12:28:06;15.15;;;9.80;;
53775;SDS011;44276;49.534;6.378;2024-03-08T12:30:45;13.98;;;9.82;;
53775;SDS011;44276;49.534;6.378;2024-03-08T12:33:15;14.35;;;9.02;;
53775;SDS011;44276;49.534;6.378;2024-03-08T12:35:50;16.35;;;8.88;;
53775;SDS011;44276;49.534;6.378;2024-03-08T12:38:22;14.98;;;9.30;;
53775;SDS011;44276;49.534;6.378;2024-03-08T12:40:58;14.77;;;9.88;;
53775;SDS011;44276;49.534;6.378;2024-03-08T12:43:27;16.42;;;9.90;;
53775;SDS011;44276;49.534;6.378;2024-03-08T12:45:59;19.73;;;10.10;;
53775;SDS011;44276;49.534;6.378;2024-03-08T12:48:33;17.25;;;10.02;;
53775;SDS011;44276;49.534;6.378;2024-03-08T12:51:07;16.70;;;10.35;;
53775;SDS011;44276;49.534;6.378;2024-03-08T12:53:35;17.35;;;10.75;;
53775;SDS011;44276;49.534;6.378;2024-03-08T12:56:04;16.33;;;10.20;;
53775;SDS011;44276;49.534;6.378;2024-03-08T12:58:34;16.98;;;10.98;;
53775;SDS011;44276;49.534;6.378;2024-03-08T13:01:06;16.42;;;10.65;;
53775;SDS011;44276;49.534;6.378;2024-03-08T13:03:35;15.98;;;10.02;;
53775;SDS011;44276;49.534;6.378;2024-03-08T13:06:03;18.80;;;11.15;;
53775;SDS011;44276;49.534;6.378;2024-03-08T13:08:34;18.17;;;9.20;;
53775;SDS011;44276;49.534;6.378;2024-03-08T13:11:05;17.02;;;11.45;;
53775;SDS011;44276;49.534;6.378;2024-03-08T13:13:38;18.95;;;9.85;;
53775;SDS011;44276;49.534;6.378;2024-03-08T13:16:08;18.23;;;10.30;;
53775;SDS011;44276;49.534;6.378;2024-03-08T13:18:38;17.30;;;10.15;;
53775;SDS011;44276;49.534;6.378;2024-03-08T13:21:08;17.58;;;9.70;;
53775;SDS011;44276;49.534;6.378;2024-03-08T13:23:40;15.18;;;9.75;;
53775;SDS011;44276;49.534;6.378;2024-03-08T13:26:12;13.55;;;9.32;;
53775;SDS011;44276;49.534;6.378;2024-03-08T13:28:42;16.27;;;10.00;;
53775;SDS011;44276;49.534;6.378;2024-03-08T13:31:12;19.63;;;9.93;;
53775;SDS011;44276;49.534;6.378;2024-03-08T13:33:41;17.25;;;10.75;;
53775;SDS011;44276;49.534;6.378;2024-03-08T13:36:12;16.50;;;9.88;;
53775;SDS011;44276;49.534;6.378;2024-03-08T13:38:42;14.73;;;10.23;;
53775;SDS011;44276;49.534;6.378;2024-03-08T13:41:14;14.98;;;9.70;;
53775;SDS011;44276;49.534;6.378;2024-03-08T13:43:47;15.20;;;8.95;;
53775;SDS011;44276;49.534;6.378;2024-03-08T13:46:18;17.02;;;9.95;;
53775;SDS011;44276;49.534;6.378;2024-03-08T13:48:46;13.50;;;8.70;;
53775;SDS011;44276;49.534;6.378;2024-03-08T13:51:17;16.67;;;10.35;;
53775;SDS011;44276;49.534;6.378;2024-03-08T13:53:46;19.55;;;10.60;;
53775;SDS011;44276;49.534;6.378;2024-03-08T13:56:14;12.55;;;9.05;;
53775;SDS011;44276;49.534;6.378;2024-03-08T13:58:43;20.75;;;11.55;;
53775;SDS011;44276;49.534;6.378;2024-03-08T14:01:12;15.02;;;9.35;;
53775;SDS011;44276;49.534;6.378;2024-03-08T14:03:42;14.48;;;9.05;;
53775;SDS011;44276;49.534;6.378;2024-03-08T14:06:10;14.75;;;10.13;;
53775;SDS011;44276;49.534;6.378;2024-03-08T14:08:49;17.15;;;10.88;;
53775;SDS011;44276;49.534;6.378;2024-03-08T14:11:17;15.48;;;9.05;;
53775;SDS011;44276;49.534;6.378;2024-03-08T14:13:46;14.73;;;8.77;;
53775;SDS011;44276;49.534;6.378;2024-03-08T14:16:14;13.88;;;8.10;;
53775;SDS011;44276;49.534;6.378;2024-03-08T14:18:45;13.50;;;8.55;;
53775;SDS011;44276;49.534;6.378;2024-03-08T14:21:14;17.15;;;10.32;;
53775;SDS011;44276;49.534;6.378;2024-03-08T14:23:44;22.05;;;12.30;;
53775;SDS011;44276;49.534;6.378;2024-03-08T14:26:15;16.30;;;9.80;;
53775;SDS011;44276;49.534;6.378;2024-03-08T14:28:45;19.75;;;10.75;;
53775;SDS011;44276;49.534;6.378;2024-03-08T14:31:18;16.42;;;8.57;;
53775;SDS011;44276;49.534;6.378;2024-03-08T14:33:52;15.48;;;8.55;;
53775;SDS011;44276;49.534;6.378;2024-03-08T14:36:22;14.98;;;9.20;;
53775;SDS011;44276;49.534;6.378;2024-03-08T14:38:51;15.70;;;8.88;;
53775;SDS011;44276;49.534;6.378;2024-03-08T14:41:20;14.27;;;8.18;;